createdAt,value
2022-08-18T00:01:02.719Z,19.78
2022-08-18T00:04:16.978Z,19.72
2022-08-18T00:07:29.963Z,19.71
2022-08-18T00:10:31.818Z,19.72
2022-08-18T00:13:33.690Z,19.73
2022-08-18T00:16:36.823Z,19.73
2022-08-18T00:19:47.753Z,19.73
2022-08-18T00:22:52.997Z,19.77
2022-08-18T00:25:55.303Z,19.79
2022-08-18T00:28:56.933Z,19.73
2022-08-18T00:32:00.280Z,19.71
2022-08-18T00:35:05.988Z,19.71
2022-08-18T00:38:08.385Z,19.64
2022-08-18T00:41:26.858Z,19.64
2022-08-18T00:44:28.329Z,19.63
2022-08-18T00:47:41.663Z,19.62
2022-08-18T00:50:55.072Z,19.63
2022-08-18T00:54:00.528Z,19.63
2022-08-18T00:57:04.154Z,19.59
2022-08-18T01:00:13.203Z,19.55
2022-08-18T01:03:22.373Z,19.50
2022-08-18T01:06:29.457Z,19.48
2022-08-18T01:09:31.134Z,19.44
2022-08-18T01:12:46.364Z,19.35
2022-08-18T01:15:48.360Z,19.35
2022-08-18T01:19:10.069Z,19.39
2022-08-18T01:22:14.841Z,19.38
2022-08-18T01:25:38.598Z,19.33
2022-08-18T01:28:44.472Z,19.34
2022-08-18T01:31:54.335Z,19.31
2022-08-18T01:34:56.881Z,19.29
2022-08-18T01:37:58.379Z,19.29
2022-08-18T01:41:28.543Z,19.27
2022-08-18T01:44:23.256Z,19.26
2022-08-18T01:47:25.317Z,19.25
2022-08-18T01:50:26.990Z,19.22
2022-08-18T01:53:29.203Z,19.19
2022-08-18T01:56:32.237Z,19.15
2022-08-18T01:59:35.415Z,19.09
2022-08-18T02:02:37.726Z,19.10
2022-08-18T02:05:40.934Z,19.09
2022-08-18T02:08:46.501Z,19.03
2022-08-18T02:11:56.697Z,19.02
2022-08-18T02:14:58.240Z,19.01
2022-08-18T02:18:02.880Z,18.99
2022-08-18T02:21:10.003Z,18.97
2022-08-18T02:24:12.283Z,18.93
2022-08-18T02:27:16.269Z,18.91
2022-08-18T02:30:18.706Z,18.88
2022-08-18T02:33:20.429Z,18.89
2022-08-18T02:36:25.303Z,18.89
2022-08-18T02:39:29.357Z,18.86
2022-08-18T02:42:32.575Z,18.87
2022-08-18T02:45:34.202Z,18.87
2022-08-18T02:48:35.888Z,18.84
2022-08-18T02:51:38.440Z,18.80
2022-08-18T02:54:40.253Z,18.81
2022-08-18T02:57:44.475Z,18.83
2022-08-18T03:00:47.663Z,18.82
2022-08-18T03:03:49.174Z,18.77
2022-08-18T03:06:50.879Z,18.68
2022-08-18T03:09:52.783Z,18.66
2022-08-18T03:12:55.781Z,18.67
2022-08-18T03:15:57.852Z,18.68
2022-08-18T03:19:00.763Z,18.67
2022-08-18T03:22:02.927Z,18.61
2022-08-18T03:25:05.370Z,18.54
2022-08-18T03:28:08.474Z,18.50
2022-08-18T03:31:11.208Z,18.49
2022-08-18T03:34:13.020Z,18.46
2022-08-18T03:37:16.677Z,18.43
2022-08-18T03:40:18.375Z,18.37
2022-08-18T03:43:49.864Z,18.38
2022-08-18T03:46:43.998Z,18.31
2022-08-18T03:49:46.493Z,18.28
2022-08-18T03:52:48.673Z,18.29
2022-08-18T03:55:52.837Z,18.23
2022-08-18T03:58:57.278Z,18.21
2022-08-18T04:01:59.478Z,18.21
2022-08-18T04:05:01.319Z,18.20
2022-08-18T04:08:07.189Z,18.19
2022-08-18T04:11:15.399Z,18.23
2022-08-18T04:14:19.367Z,18.23
2022-08-18T04:17:25.334Z,18.23
2022-08-18T04:20:27.397Z,18.19
2022-08-18T04:23:39.400Z,18.16
2022-08-18T04:26:47.289Z,18.21
2022-08-18T04:29:50.496Z,18.27
2022-08-18T04:32:52.515Z,18.27
2022-08-18T04:35:56.001Z,18.30
2022-08-18T04:38:58.800Z,18.36
2022-08-18T04:42:01.690Z,18.38
2022-08-18T04:45:07.334Z,18.33
2022-08-18T04:48:08.790Z,18.35
2022-08-18T04:52:30.984Z,18.38
2022-08-18T04:54:39.286Z,18.44
2022-08-18T04:57:43.797Z,18.43
2022-08-18T05:00:47.220Z,18.40
2022-08-18T05:03:50.286Z,18.43
2022-08-18T05:06:52.126Z,18.48
2022-08-18T05:09:54.389Z,18.47
2022-08-18T05:12:56.679Z,18.47
2022-08-18T05:16:11.937Z,18.50
2022-08-18T05:19:25.949Z,18.54
2022-08-18T05:22:31.011Z,18.58
2022-08-18T05:25:33.892Z,18.61
2022-08-18T05:28:37.123Z,18.62
2022-08-18T05:31:40.488Z,18.63
2022-08-18T05:34:42.624Z,18.65
2022-08-18T05:37:47.663Z,18.65
2022-08-18T05:41:06.567Z,18.64
2022-08-18T05:44:09.430Z,18.65
2022-08-18T05:47:14.083Z,18.68
2022-08-18T05:50:17.506Z,18.69
2022-08-18T05:53:20.681Z,18.64
2022-08-18T05:56:45.997Z,18.57
2022-08-18T05:59:49.005Z,18.59
2022-08-18T06:02:55.524Z,18.58
2022-08-18T06:05:59.450Z,18.60
2022-08-18T06:09:05.710Z,18.56
2022-08-18T06:12:14.930Z,18.52
2022-08-18T06:15:18.772Z,18.56
2022-08-18T06:18:31.310Z,18.57
2022-08-18T06:21:39.438Z,18.58
2022-08-18T06:24:44.583Z,18.59
2022-08-18T06:27:55.825Z,18.59
2022-08-18T06:30:59.979Z,18.64
2022-08-18T06:34:12.473Z,18.57
2022-08-18T06:37:18.066Z,18.62
2022-08-18T06:40:19.716Z,18.76
2022-08-18T06:43:21.955Z,18.91
2022-08-18T06:46:25.544Z,19.01
2022-08-18T06:49:38.809Z,19.08
2022-08-18T06:52:54.209Z,19.12
2022-08-18T06:55:59.521Z,18.99
2022-08-18T06:59:22.053Z,18.97
2022-08-18T07:02:27.167Z,19.01
2022-08-18T07:05:31.590Z,19.01
2022-08-18T07:08:35.774Z,19.00
2022-08-18T07:11:43.290Z,19.10
2022-08-18T07:14:48.877Z,19.18
2022-08-18T07:17:50.642Z,19.07
2022-08-18T07:20:55.337Z,19.04
2022-08-18T07:24:23.221Z,19.03
2022-08-18T07:27:22.667Z,19.01
2022-08-18T07:30:29.992Z,19.04
2022-08-18T07:33:31.982Z,19.09
2022-08-18T07:36:40.457Z,19.14
2022-08-18T07:39:47.426Z,19.18
2022-08-18T07:43:01.046Z,19.08
2022-08-18T07:46:06.037Z,19.09
2022-08-18T07:49:07.815Z,19.11
2022-08-18T07:52:44.230Z,19.13
2022-08-18T07:55:42.139Z,19.09
2022-08-18T07:58:46.724Z,19.07
2022-08-18T08:01:52.629Z,19.03
2022-08-18T08:05:00.053Z,19.12
2022-08-18T08:08:10.951Z,19.11
2022-08-18T08:11:19.277Z,19.14
2022-08-18T08:14:26.914Z,19.21
2022-08-18T08:17:32.593Z,19.39
2022-08-18T08:20:39.285Z,19.38
2022-08-18T08:23:47.006Z,19.54
2022-08-18T08:26:52.892Z,19.65
2022-08-18T08:30:01.788Z,19.67
2022-08-18T08:33:08.375Z,19.77
2022-08-18T08:36:12.073Z,19.82
2022-08-18T08:39:18.166Z,19.74
2022-08-18T08:42:30.533Z,19.76
2022-08-18T08:45:37.243Z,20.12
2022-08-18T08:48:41.824Z,20.25
2022-08-18T08:51:47.056Z,20.23
2022-08-18T08:54:56.449Z,20.19
2022-08-18T08:58:02.581Z,20.22
2022-08-18T09:01:05.013Z,20.46
2022-08-18T09:04:17.479Z,20.47
2022-08-18T09:07:27.322Z,20.39
2022-08-18T09:10:43.826Z,20.32
2022-08-18T09:14:00.318Z,20.30
2022-08-18T09:17:12.291Z,20.29
2022-08-18T09:20:33.079Z,20.26
2022-08-18T09:23:39.978Z,20.17
2022-08-18T09:26:44.237Z,20.20
2022-08-18T09:29:49.671Z,20.34
2022-08-18T09:33:02.436Z,20.36
2022-08-18T09:36:28.140Z,20.44
2022-08-18T09:43:14.936Z,20.42
2022-08-18T09:46:36.842Z,20.47
2022-08-18T09:49:53.128Z,20.41
2022-08-18T09:52:57.778Z,20.42
2022-08-18T09:56:05.163Z,20.43
2022-08-18T09:59:40.457Z,20.51
2022-08-18T10:03:01.304Z,20.59
2022-08-18T10:06:19.067Z,20.74
2022-08-18T10:13:00.346Z,20.66
2022-08-18T10:16:10.853Z,20.61
2022-08-18T10:19:17.347Z,20.68
2022-08-18T10:22:35.305Z,20.71
2022-08-18T10:25:41.079Z,20.66
2022-08-18T10:28:55.476Z,20.65
2022-08-18T10:32:22.273Z,20.72
2022-08-18T10:35:52.324Z,20.78
2022-08-18T10:38:54.187Z,20.89
2022-08-18T10:42:00.539Z,20.99
2022-08-18T10:45:06.735Z,21.22
2022-08-18T10:48:16.749Z,21.49
2022-08-18T10:51:25.832Z,21.66
2022-08-18T10:54:36.188Z,21.66
2022-08-18T10:58:07.838Z,21.44
2022-08-18T11:01:20.858Z,21.52
2022-08-18T11:04:34.172Z,21.62
2022-08-18T11:07:44.966Z,21.58
2022-08-18T11:11:27.135Z,21.53
2022-08-18T11:14:24.129Z,21.55
2022-08-18T11:17:42.662Z,21.57
2022-08-18T11:20:47.389Z,21.66
2022-08-18T11:24:01.885Z,21.68
2022-08-18T11:27:04.669Z,21.66
2022-08-18T11:30:17.711Z,21.64
2022-08-18T11:33:22.683Z,21.75
2022-08-18T11:36:32.695Z,21.85
2022-08-18T11:39:42.814Z,22.05
2022-08-18T11:42:57.740Z,22.03
2022-08-18T11:46:04.433Z,22.09
2022-08-18T11:49:16.935Z,22.15
2022-08-18T11:52:34.155Z,22.09
2022-08-18T11:55:37.260Z,22.35
2022-08-18T11:58:43.349Z,22.42
2022-08-18T12:01:51.537Z,22.50
2022-08-18T12:05:08.596Z,22.57
2022-08-18T12:11:50.750Z,22.17
2022-08-18T12:15:02.909Z,22.00
2022-08-18T12:18:10.776Z,22.02
2022-08-18T12:21:22.287Z,21.98
2022-08-18T12:24:26.418Z,22.00
2022-08-18T12:27:33.805Z,22.05
2022-08-18T12:30:35.514Z,22.09
2022-08-18T12:33:48.141Z,22.12
2022-08-18T12:37:01.512Z,22.17
2022-08-18T12:40:06.101Z,22.26
2022-08-18T12:43:08.375Z,22.38
2022-08-18T12:46:11.925Z,22.59
2022-08-18T12:49:17.608Z,22.74
2022-08-18T12:52:21.190Z,22.86
2022-08-18T12:55:28.520Z,22.89
2022-08-18T12:58:30.136Z,22.94
2022-08-18T13:01:32.518Z,22.97
2022-08-18T13:04:34.150Z,22.89
2022-08-18T13:07:37.286Z,22.94
2022-08-18T13:10:45.221Z,22.83
2022-08-18T13:13:56.559Z,22.82
2022-08-18T13:16:58.991Z,22.91
2022-08-18T13:20:01.367Z,22.91
2022-08-18T13:23:04.353Z,23.08
2022-08-18T13:26:13.525Z,22.99
2022-08-18T13:29:17.461Z,22.85
2022-08-18T13:32:19.831Z,22.78
2022-08-18T13:35:24.107Z,22.73
2022-08-18T13:38:28.252Z,22.77
2022-08-18T13:41:32.525Z,22.73
2022-08-18T13:44:35.302Z,22.73
2022-08-18T13:47:38.227Z,22.76
2022-08-18T13:50:40.401Z,22.79
2022-08-18T13:53:57.735Z,22.83
2022-08-18T13:57:04.503Z,22.85
2022-08-18T14:00:17.923Z,22.88
2022-08-18T14:03:42.901Z,22.88
2022-08-18T14:06:47.089Z,22.85
2022-08-18T14:09:59.160Z,22.83
2022-08-18T14:13:11.961Z,22.84
2022-08-18T14:16:22.861Z,22.87
2022-08-18T14:19:46.923Z,22.82
2022-08-18T14:23:09.189Z,22.85
2022-08-18T14:26:31.034Z,22.85
2022-08-18T14:29:45.444Z,22.82
2022-08-18T14:32:49.540Z,22.81
2022-08-18T14:36:05.795Z,22.80
2022-08-18T14:39:08.616Z,22.76
2022-08-18T14:42:12.658Z,22.77
2022-08-18T14:45:26.432Z,22.75
2022-08-18T14:48:37.113Z,22.72
2022-08-18T14:51:42.596Z,22.73
2022-08-18T14:54:46.321Z,22.70
2022-08-18T14:57:54.467Z,22.70
2022-08-18T15:00:57.187Z,22.72
2022-08-18T15:03:59.183Z,22.71
2022-08-18T15:07:02.736Z,22.73
2022-08-18T15:10:15.307Z,22.72
2022-08-18T15:13:19.706Z,22.71
2022-08-18T15:16:31.506Z,22.69
2022-08-18T15:19:58.913Z,22.70
2022-08-18T15:23:13.575Z,22.61
2022-08-18T15:26:25.953Z,22.58
2022-08-18T15:29:30.613Z,22.55
2022-08-18T15:32:32.776Z,22.57
2022-08-18T15:35:35.290Z,22.57
2022-08-18T15:38:40.911Z,22.61
2022-08-18T15:44:53.677Z,22.65
2022-08-18T15:47:56.053Z,22.65
2022-08-18T15:51:06.169Z,22.66
2022-08-18T15:54:14.127Z,22.68
2022-08-18T15:57:34.264Z,22.66
2022-08-18T16:00:42.512Z,22.66
2022-08-18T16:03:48.943Z,22.70
2022-08-18T16:06:52.519Z,22.72
2022-08-18T16:09:54.354Z,22.68
2022-08-18T16:12:56.767Z,22.67
2022-08-18T16:15:59.989Z,22.64
2022-08-18T16:19:01.992Z,22.62
2022-08-18T16:22:06.871Z,22.61
2022-08-18T16:25:09.281Z,22.58
2022-08-18T16:28:13.441Z,22.55
2022-08-18T16:31:16.693Z,22.51
2022-08-18T16:34:21.116Z,22.49
2022-08-18T16:37:22.876Z,22.46
2022-08-18T16:40:24.528Z,22.46
2022-08-18T16:43:32.711Z,22.45
2022-08-18T16:46:37.612Z,22.44
2022-08-18T16:49:39.594Z,22.43
2022-08-18T16:52:41.586Z,22.42
2022-08-18T16:55:43.432Z,22.39
2022-08-18T16:59:06.296Z,22.39
2022-08-18T17:02:29.794Z,22.39
2022-08-18T17:05:34.581Z,22.39
2022-08-18T17:08:36.802Z,22.36
2022-08-18T17:11:51.306Z,22.35
2022-08-18T17:14:54.581Z,22.34
2022-08-18T17:17:57.591Z,22.33
2022-08-18T17:21:05.782Z,22.32
2022-08-18T17:24:08.444Z,22.28
2022-08-18T17:27:26.676Z,22.27
2022-08-18T17:30:31.575Z,22.27
2022-08-18T17:33:36.562Z,22.25
2022-08-18T17:36:41.149Z,22.24
2022-08-18T17:39:47.142Z,22.24
2022-08-18T17:42:51.692Z,22.22
2022-08-18T17:45:54.602Z,22.20
2022-08-18T17:49:00.217Z,22.19
2022-08-18T17:52:03.213Z,22.17
2022-08-18T17:55:09.199Z,22.15
2022-08-18T17:58:21.628Z,22.14
2022-08-18T18:01:24.075Z,22.13
2022-08-18T18:04:27.369Z,22.13
2022-08-18T18:07:33.971Z,22.11
2022-08-18T18:14:20.240Z,22.08
2022-08-18T18:17:26.399Z,22.06
2022-08-18T18:20:38.224Z,22.05
2022-08-18T18:23:41.610Z,22.05
2022-08-18T18:26:46.393Z,22.02
2022-08-18T18:29:53.944Z,21.99
2022-08-18T18:32:58.870Z,21.96
2022-08-18T18:36:04.100Z,21.93
2022-08-18T18:39:11.186Z,21.92
2022-08-18T18:42:18.137Z,21.89
2022-08-18T18:45:21.675Z,21.86
2022-08-18T18:48:45.068Z,21.84
2022-08-18T18:51:54.042Z,21.81
2022-08-18T18:54:59.758Z,21.79
2022-08-18T18:58:11.052Z,21.78
2022-08-18T19:01:17.700Z,21.75
2022-08-18T19:04:24.284Z,21.70
2022-08-18T19:07:32.352Z,21.67
2022-08-18T19:10:35.738Z,21.62
2022-08-18T19:13:43.191Z,21.58
2022-08-18T19:16:49.865Z,21.55
2022-08-18T19:19:53.392Z,21.51
2022-08-18T19:22:59.821Z,21.49
2022-08-18T19:26:02.436Z,21.48
2022-08-18T19:29:13.219Z,21.44
2022-08-18T19:32:20.219Z,21.46
2022-08-18T19:35:23.426Z,21.46
2022-08-18T19:38:31.685Z,21.47
2022-08-18T19:41:39.520Z,21.44
2022-08-18T19:44:55.373Z,21.42
2022-08-18T19:48:05.607Z,21.41
2022-08-18T19:51:12.498Z,21.41
2022-08-18T19:54:29.144Z,21.40
2022-08-18T19:57:43.581Z,21.39
2022-08-18T20:00:52.024Z,21.36
2022-08-18T20:04:05.453Z,21.34
2022-08-18T20:07:31.565Z,21.31
2022-08-18T20:10:47.622Z,21.30
2022-08-18T20:13:54.798Z,21.26
2022-08-18T20:17:12.137Z,21.25
2022-08-18T20:20:16.909Z,21.16
2022-08-18T20:23:33.345Z,21.12
2022-08-18T20:26:42.300Z,21.09
2022-08-18T20:29:46.524Z,21.07
2022-08-18T20:33:07.028Z,21.05
2022-08-18T20:36:13.038Z,21.02
2022-08-18T20:39:35.489Z,21.01
2022-08-18T20:42:49.711Z,20.96
2022-08-18T20:46:22.010Z,20.91
2022-08-18T20:49:28.296Z,20.88
2022-08-18T20:52:37.805Z,20.87
2022-08-18T20:55:44.259Z,20.86
2022-08-18T20:58:51.607Z,20.84
2022-08-18T21:01:56.413Z,20.81
2022-08-18T21:04:59.278Z,20.78
2022-08-18T21:08:04.763Z,20.75
2022-08-18T21:11:08.704Z,20.66
2022-08-18T21:14:12.862Z,20.64
2022-08-18T21:17:20.543Z,20.60
2022-08-18T21:20:23.605Z,20.60
2022-08-18T21:23:29.482Z,20.57
2022-08-18T21:26:31.947Z,20.49
2022-08-18T21:29:44.310Z,20.48
2022-08-18T21:32:50.821Z,20.43
2022-08-18T21:35:53.871Z,20.44
2022-08-18T21:39:05.804Z,20.41
2022-08-18T21:42:17.961Z,20.38
2022-08-18T21:45:23.402Z,20.41
2022-08-18T21:48:30.630Z,20.40
2022-08-18T21:51:33.320Z,20.44
2022-08-18T21:54:35.110Z,20.41
2022-08-18T21:57:50.455Z,20.39
2022-08-18T22:01:07.723Z,20.40
2022-08-18T22:04:19.389Z,20.35
2022-08-18T22:07:34.623Z,20.35
2022-08-18T22:10:58.613Z,20.30
2022-08-18T22:14:12.203Z,20.33
2022-08-18T22:17:25.543Z,20.31
2022-08-18T22:20:44.615Z,20.23
2022-08-18T22:24:04.947Z,20.23
2022-08-18T22:27:11.763Z,20.18
2022-08-18T22:30:13.465Z,20.15
2022-08-18T22:33:15.457Z,20.11
2022-08-18T22:36:20.689Z,20.10
2022-08-18T22:39:26.170Z,20.03
2022-08-18T22:42:29.068Z,19.94
2022-08-18T22:45:34.072Z,19.91
2022-08-18T22:48:35.821Z,19.86
2022-08-18T22:51:38.937Z,19.82
2022-08-18T22:54:40.680Z,19.74
2022-08-18T22:57:45.606Z,19.71
2022-08-18T23:00:51.379Z,19.66
2022-08-18T23:03:53.688Z,19.60
2022-08-18T23:06:56.966Z,19.59
2022-08-18T23:09:59.240Z,19.58
2022-08-18T23:13:04.584Z,19.61
2022-08-18T23:16:13.289Z,19.64
2022-08-18T23:19:29.243Z,19.65
2022-08-18T23:22:33.341Z,19.61
2022-08-18T23:25:35.115Z,19.61
2022-08-18T23:28:36.789Z,19.56
2022-08-18T23:31:38.847Z,19.55
2022-08-18T23:34:40.768Z,19.55
2022-08-18T23:37:44.285Z,19.54
2022-08-18T23:40:48.705Z,19.54
2022-08-18T23:43:53.504Z,19.54
2022-08-18T23:46:55.788Z,19.53
2022-08-18T23:49:58.073Z,19.52
2022-08-18T23:53:03.025Z,19.51
2022-08-18T23:56:07.693Z,19.49
2022-08-18T23:59:10.180Z,19.47
